Tiempo atmosférico en la estación meteorológica de Ourense, Ourense (143 m.)



Fecha
DESCASC
Temp. máxima en grados centígrados (hora)
DESCASC
Temp. mínima en grados centígrados (hora)
DESCASC
Temp. media en grados centígrados
DESCASC
Racha de viento máxima en m/sg (hora)
DESCASC
Velocidad máxima media en intervalos de 10 minutos(hora)
DESCASC
Precipitaciones diarias en mm
DESCASC
Precipitaciones de 00:00 a 06:00 en mm
DESCASC
Precipitaciones de 06:00 a 12:00 en mm
DESCASC
Precipitaciones de 12:00 a 18:00 en mm
DESCASC
Precipitaciones de 18:00 a 24:00 en mm
DESCASC
16-04-2019 22.2 (17:50) 3.9 (06:50) 13.1 10.83 (18:20) 4.44 (14:10) 0 0 0 0 0
15-04-2019 17.6 (17:40) 9.5 (23:59) 13.6 11.94 (11:00) 4.44 (17:10) 2.6 0 1.2 1.4 0
14-04-2019 22.1 (15:50) 13.8 (00:00) 18 4.72 (16:10) 2.78 (16:10) 0 0 0 0 0
13-04-2019 21.2 (14:10) 8.9 (00:00) 15.1 7.5 (17:40) 2.78 (14:20) 0 0 0 0 0
12-04-2019 23.3 (18:30) 2.8 (00:00) 13 5.28 (20:10) 2.5 (20:10) 0 0 0 0 0
11-04-2019 19.2 (17:10) 4.8 (00:00) 12 5.83 (16:30) 2.22 (15:10) 0 0 0 0 0
10-04-2019 17.1 (15:20) 6 (00:00) 11.6 7.22 (17:20) 2.78 (17:20) 1.8 1.2 0 0.6 0
09-04-2019 14.7 (15:40) 7.4 (00:00) 11 10.83 (16:20) 5 (15:20) 32.4 12.8 5.2 2.2 12.2
08-04-2019 17.4 (17:50) 7.3 (00:00) 12.3 11.67 (15:00) 5.83 (15:00) 9.8 1.6 2 0 6.2
07-04-2019 11.5 (14:10) 4.8 (00:00) 8.2 6.11 (18:40) 3.33 (18:30) 12 0.2 0 3.4 8.4
06-04-2019 12.6 (17:40) 4.9 (00:00) 8.8 8.33 (17:50) 4.17 (18:00) 27.6 12.8 6.2 5.8 2.8
05-04-2019 12.3 (17:40) 3.8 (00:00) 8.1 11.39 (13:50) 4.44 (12:40) 4.8 2.8 0.2 1 0.8
04-04-2019 12.5 (14:10) 0.1 (00:00) 6.3 7.78 (19:20) 3.61 (14:00) 10.6 0 0 1.2 9.4
03-04-2019 14 (15:30) 5.6 (00:00) 9.8 8.61 (16:00) 3.61 (15:10) 0 0 0 0 0
02-04-2019 20.1 (18:00) 2.8 (00:00) 11.5 5.83 (18:00) 2.78 (18:10) 0 0 0 0 0
01-04-2019 24.5 (16:10) 3.7 (00:00) 14.1 7.78 (16:50) 3.06 (16:30) 0 0 0 0 0
31-03-2019 23.8 (17:50) 3.8 (00:00) 13.8 7.5 (15:20) 3.61 (15:50) 0 0 0 0 0
30-03-2019 24.6 (17:30) 2.8 (00:00) 13.7 6.67 (15:20) 2.78 (16:50) 0 0 0 0 0
29-03-2019 25.4 (16:40) 3.1 (00:00) 14.2 7.5 (17:40) 3.61 (17:40) 0 0 0 0 0
28-03-2019 26.1 (17:30) 2.5 (00:00) 14.3 4.72 (19:30) 1.94 (19:20) 0 0 0 0 0
27-03-2019 25.9 (17:20) 0.7 (00:00) 13.3 6.94 (18:40) 3.06 (18:40) 0 0 0 0 0
26-03-2019 26.7 (17:10) 2.5 (00:00) 14.6 8.33 (18:10) 3.61 (18:10) 0 0 0 0 0
25-03-2019 23.8 (17:10) 4.3 (00:00) 14 6.39 (19:20) 2.78 (18:30) 0 0 0 0 0
24-03-2019 26.3 (16:20) 3.7 (00:00) 15 6.11 (18:20) 2.5 (21:50) 0 0 0 0 0
23-03-2019 25.3 (16:20) 2.2 (00:00) 13.7 6.67 (15:40) 3.33 (15:40) 0 0 0 0 0
22-03-2019 23.1 (16:40) 1.6 (00:00) 12.4 4.17 (14:50) 1.94 (14:50) 0 0 0 0 0
21-03-2019 21.9 (16:50) 5.5 (00:00) 13.7 4.17 (20:20) 1.94 (17:00) 0 0 0 0 0
20-03-2019 21.2 (16:40) 2 (00:00) 11.6 5.56 (21:20) 2.5 (20:00) 0 0 0 0 0
19-03-2019 18.7 (15:40) 2 (00:00) 10.4 7.78 (11:20) 3.33 (11:20) 0 0 0 0 0

Gráficas

Temp. máximas Temp. mínimas Temp. medias Precipitaciones Rachas de viento máximas Velocidades máximas media en intervalos de 10 minutos

Datos horarios

Fecha y hora oficial Temperatura (ºC) Velocidad del viento (km/h) Dirección del viento Racha (km/h) Dirección de racha Precipitación (mm) Presión (hPa) Tendencia (hPa) Humedad (%)
2019-04-17 23:00:00 12.3 2 Sur 4 Sudeste 0.2 991 1.6 93
2019-04-17 22:00:00 12.5 0 Calma 6 Nordeste 0.2 990.2 1.3 91
2019-04-17 21:00:00 12.8 0 Calma 6 Este 0.8 989.7 1.6 91
2019-04-17 20:00:00 13.2 2 Nordeste 7 Este 3 989.4 1.8 86
2019-04-17 19:00:00 13.8 3 Nordeste 9 Noroeste 1.4 988.9 1 85
2019-04-17 18:00:00 14.7 2 Sudoeste 33 Sudeste 0.8 988.1 0.2 80
2019-04-17 17:00:00 16.2 7 Sudeste 24 Sudeste 0 987.6 -1 72
2019-04-17 16:00:00 17.5 11 Sur 28 Sudeste 0 987.9 -0.9 59
2019-04-17 15:00:00 17.6 9 Sur 29 Sur 0 987.9 -1 55
2019-04-17 14:00:00 17.4 14 Sur 32 Sudeste 0 988.6 -0.3 55
2019-04-17 13:00:00 17.8 12 Sudeste 36 Sur 0 988.8 -0.1 53
2019-04-17 12:00:00 16.7 14 Sudeste 35 Sudeste 0 988.9 0.1 51
2019-04-17 11:00:00 16.5 15 Sudeste 35 Sudeste 0 988.9 0.3 53
2019-04-17 10:00:00 14.7 11 Sudeste 29 Sur 0 988.9 0.7 61
2019-04-17 09:00:00 9.7 2 Sudeste 6 Oeste 0 988.8 0.5 89
2019-04-17 08:00:00 9.5 0 Calma 5 Sur 0 988.6 0.1 88
2019-04-17 07:00:00 9.5 2 Sur 6 Sudeste 0 988.2 -0.7 87
2019-04-17 06:00:00 9.7 3 Sudoeste 6 Este 0 988.3 -1.1 85
2019-04-17 05:00:00 9.5 4 Sur 9 Sudeste 0 988.5 -1.9 85
2019-04-17 04:00:00 9.8 0 Calma 5 Oeste 0 988.9 -2.3 84
2019-04-17 03:00:00 10.1 3 Oeste 6 Oeste 0 989.4 -2.3 82
2019-04-17 02:00:00 10.5 0 Calma 6 Oeste 0 990.4 -1.5 79
2019-04-17 01:00:00 11.8 2 Oeste 6 Oeste 0 991.2 -0.9 75
2019-04-17 00:00:00 13.5 3 Oeste 8 Oeste 0 991.7 -0.3 68
2019-04-16 23:00:00 15.4 3 Noroeste 9 Oeste 0 991.9 -0.4 61
2019-04-16 22:00:00 18 3 Este 6 Sudeste 0 992.1 -0.7 47
2019-04-16 21:00:00 20 4 Sudeste 20 Sudeste 0 992 -1.4 39
2019-04-16 20:00:00 20.8 10 Sudeste 32 Este 0 992.3 -1.9 36
2019-04-16 19:00:00 21.5 13 Sudeste 39 Sudeste 0 992.8 -2.4 34
2019-04-16 18:00:00 21.9 14 Sudeste 28 Sur 0 993.4 -2.3 34
2019-04-16 17:00:00 21.1 13 Sudeste 32 Sudeste 0 994.2 -2.6 34
2019-04-16 16:00:00 20.4 15 Sudeste 31 Sudeste 0 995.2 -2.5 37
2019-04-16 15:00:00 20.2 13 Sudeste 31 Sudeste 0 995.7 -3.2 38
2019-04-16 14:00:00 18.8 14 Sudeste 32 Sudeste 0 996.8 -3 42
2019-04-16 13:00:00 16.5 12 Sudeste 26 Sudeste 0 997.7 -2.4 51
2019-04-16 12:00:00 11.1 4 Oeste 9 Sudoeste 0 998.9 -1.4 83
2019-04-16 11:00:00 7.7 3 Sudoeste 9 Sudoeste 0 999.8 -0.3 94
2019-04-16 10:00:00 6.4 4 Oeste 8 Oeste 0 1000.1 -0.1 96
2019-04-16 09:00:00 5.4 3 Sudeste 6 Sudeste 0 1000.3 -0.4 97
2019-04-16 08:00:00 4.5 3 Sudeste 5 Sudeste 0 1000.1 -0.7 96
2019-04-16 07:00:00 3.9 2 Sudeste 6 Oeste 0 1000.2 -0.6 94
2019-04-16 06:00:00 4.4 2 Este 5 Oeste 0 1000.7 -0.1 93
2019-04-16 05:00:00 4.9 3 Sudoeste 6 Sudoeste 0 1000.8 -0.4 92
2019-04-16 04:00:00 5.6 3 Sudoeste 5 Sudoeste 0 1000.8 0.2 91
2019-04-16 03:00:00 6.4 2 Oeste 5 Sudoeste 0 1000.8 0.6 90
2019-04-16 02:00:00 7.3 0 Calma 4 Sudeste 0 1001.2 1.2 88
2019-04-16 01:00:00 8.2 2 Oeste 7 Oeste 0 1000.6 1.2 86
2019-04-16 00:00:00 9.5 3 Oeste 5 Oeste 0 1000.2 2.1 81
2019-04-15 23:00:00 10.5 5 Sudeste 8 Sudeste 0 1000 2.6 75
2019-04-15 22:00:00 12.2 4 Sudeste 14 Sudoeste 0 999.4 2.8 69
2019-04-15 21:00:00 14.2 7 Sudoeste 21 Sudoeste 0 998.1 2.4 59
2019-04-15 20:00:00 16.1 10 Sudoeste 25 Sudoeste 0 997.4 2.5 52
2019-04-15 19:00:00 16.8 12 Sudoeste 27 Sudoeste 0 996.6 2.3 53
2019-04-15 18:00:00 17 13 Oeste 32 Oeste 0 995.7 1.8 55
2019-04-15 17:00:00 17.1 11 Sudoeste 33 Oeste 0 994.9 1.2 65
2019-04-15 16:00:00 16.4 11 Sudoeste 31 Oeste 0.2 994.3 0.5 73
2019-04-15 15:00:00 15 7 Sudeste 19 Sudeste 0.2 993.9 0.9 81
2019-04-15 14:00:00 13.3 5 Sudeste 15 Oeste 0.8 993.7 1.8 85
2019-04-15 13:00:00 13.5 6 Oeste 30 Sur 0.2 993.8 2.8 81
2019-04-15 12:00:00 13.8 10 Sudoeste 34 Oeste 0.2 993 1.7 81
2019-04-15 11:00:00 15.1 15 Sudoeste 43 Oeste 0.2 991.9 1.1 80
2019-04-15 10:00:00 15.6 3 Este 9 Este 0 991 0.7 83
2019-04-15 09:00:00 15.6 4 Sudoeste 11 Sur 0 991.3 1.4 79
2019-04-15 08:00:00 15.5 3 Sudoeste 10 Sudoeste 0 990.8 -0.5 89
2019-04-15 07:00:00 15 2 Este 14 Sur 0.8 990.3 -2 93
2019-04-15 06:00:00 14.4 0 Calma 6 Sur 0 989.9 -3.3 91
2019-04-15 05:00:00 14.3 4 Sudoeste 6 Oeste 0 991.3 -2.8 91
2019-04-15 04:00:00 14.6 4 Oeste 8 Oeste 0 992.3 -2.4 90
2019-04-15 03:00:00 15 0 Calma 6 Oeste 0 993.2 -1.8 89
2019-04-15 02:00:00 15.4 3 Oeste 6 Oeste 0 994.1 -1.2 87
2019-04-15 01:00:00 16.3 0 Calma 5 Oeste 0 994.7 -0.7 85
2019-04-15 00:00:00 17.3 0 Calma 5 Oeste 0 995 0 81
2019-04-14 23:00:00 17.9 3 Oeste 5 Nordeste 0 995.3 0.3 79
2019-04-14 22:00:00 18.8 0 Calma 6 Oeste 0 995.4 0 74
2019-04-14 21:00:00 19.7 4 Sudoeste 11 Sudoeste 0 995 -0.7 70
2019-04-14 20:00:00 21 4 Sudoeste 11 Sudeste 0 995 -1.5 66
2019-04-14 19:00:00 21.5 0 Calma 8 Oeste 0 995.4 -2 65
2019-04-14 18:00:00 21.9 3 Noroeste 9 Sudoeste 0 995.7 -2 62
2019-04-14 17:00:00 21.3 5 Sudeste 17 Sudeste 0 996.5 -1.7 65
2019-04-14 16:00:00 22 3 Sudeste 13 Sudeste 0 997.4 -1.4 60
2019-04-14 15:00:00 21.4 5 Sudeste 14 Sudeste 0 997.7 -1.6 63
2019-04-14 14:00:00 21.1 5 Sudeste 13 Este 0 998.2 -1 63
2019-04-14 13:00:00 18.6 2 Sur 9 Oeste 0 998.8 -0.1 72
2019-04-14 12:00:00 16.7 3 Noroeste 8 Oeste 0 999.3 0.4 83
2019-04-14 11:00:00 15.6 3 Oeste 6 Oeste 0 999.2 0.2 86
2019-04-14 10:00:00 14.6 2 Norte 6 Oeste 0 998.9 0.1 89
2019-04-14 09:00:00 14 0 Calma 4 Sudeste 0 998.9 -0.2 90
2019-04-14 08:00:00 13.8 3 Sudeste 4 Sudeste 0 999 -0.2 91
2019-04-14 07:00:00 13.9 2 Oeste 5 Oeste 0 998.8 -1 90
2019-04-14 06:00:00 13.9 0 Calma 4 Oeste 0 999.1 -1.2 88
2019-04-14 05:00:00 14 3 Sudoeste 5 Oeste 0 999.2 -1.3 89
2019-04-14 04:00:00 14.2 0 Calma 4 Sur 0 999.8 -1.1 87
2019-04-14 03:00:00 14.3 2 Oeste 3 Oeste 0 1000.3 -0.9 88
2019-04-14 02:00:00 14.7 2 Sudeste 4 Oeste 0 1000.5 -0.8 87
2019-04-14 01:00:00 15 2 Sudeste 3 Sudeste 0 1000.9 0.2 86
2019-04-14 00:00:00 15.1 2 Sur 5 Oeste 0 1001.2 0.8 85
2019-04-13 23:00:00 15.3 2 Oeste 5 Oeste 0 1001.3 1 84
2019-04-13 22:00:00 15.5 2 Nordeste 5 Nordeste 0 1000.7 0.6 84
2019-04-13 21:00:00 15.8 3 Sudeste 5 Nordeste 0 1000.4 0.6 79
2019-04-13 20:00:00 16.2 3 Nordeste 10 Este 0 1000.3 1 76
2019-04-13 19:00:00 16.9 3 Noroeste 18 Nordeste 0 1000.1 0.7 71
2019-04-13 18:00:00 17.8 4 Nordeste 27 Oeste 0 999.8 0.5 67
2019-04-13 17:00:00 19.9 7 Noroeste 18 Noroeste 0 999.3 -0.1 51
2019-04-13 16:00:00 20.2 6 Oeste 18 Oeste 0 999.4 -0.4 43
2019-04-13 15:00:00 20 7 Oeste 21 Oeste 0 999.3 -1.4 45
2019-04-13 14:00:00 21.1 6 Noroeste 16 Oeste 0 999.4 -1.6 37
2019-04-13 13:00:00 18.3 3 Noroeste 9 Nordeste 0 999.8 -1.1 57
2019-04-13 12:00:00 15.1 3 Norte 8 Nordeste 0 1000.7 -0.6 66
2019-04-13 11:00:00 12.7 3 Nordeste 9 Oeste 0 1001 0.1 72
2019-04-13 10:00:00 10.8 3 Sur 5 Oeste 0 1000.9 0.2 84
2019-04-13 09:00:00 9.4 0 Calma 5 Oeste 0 1001.3 0.5 89
2019-04-13 08:00:00 9 3 Sudoeste 4 Oeste 0 1000.9 -0.2 89
2019-04-13 07:00:00 9.2 2 Sur 5 Oeste 0 1000.7 -0.2 86
2019-04-13 06:00:00 9.7 2 Sudoeste 5 Oeste 0 1000.8 -0.6 85
2019-04-13 05:00:00 10 3 Sudoeste 5 Oeste 0 1001.1 -0.3 83
2019-04-13 04:00:00 10.3 3 Sudeste 4 Oeste 0 1000.9 -0.4 81
2019-04-13 03:00:00 10.7 2 Sudeste 5 Sudoeste 0 1001.4 0.2 80
2019-04-13 02:00:00 11.4 3 Oeste 4 Sudoeste 0 1001.4 0.5 77
2019-04-13 01:00:00 12.3 3 Sudoeste 5 Oeste 0 1001.3 1.1 72
2019-04-13 00:00:00 13.6 3 Este 8 Sudeste 0 1001.2 1.8 66
2019-04-12 23:00:00 14.5 2 Este 5 Sudeste 0 1000.9 2.2 65
2019-04-12 22:00:00 16.4 3 Este 10 Oeste 0 1000.2 1.5 56
2019-04-12 21:00:00 18.3 3 Sur 19 Sudoeste 0 999.4 0.4 48
2019-04-12 20:00:00 21.2 8 Sudoeste 15 Oeste 0 998.7 -0.6 38
2019-04-12 19:00:00 23 3 Sur 14 Oeste 0 998.7 -1.7 25
2019-04-12 18:00:00 22.9 5 Oeste 16 Oeste 0 999 -2 25
2019-04-12 17:00:00 22.2 6 Sur 15 Oeste 0 999.3 -2.5 28
2019-04-12 16:00:00 21.1 8 Oeste 17 Oeste 0 1000.4 -2.1 28
2019-04-12 15:00:00 19.7 4 Nordeste 10 Nordeste 0 1001 -2.1 32
2019-04-12 14:00:00 17.7 4 Noroeste 9 Oeste 0 1001.8 -1.6 44
2019-04-12 13:00:00 14.3 4 Oeste 10 Oeste 0 1002.5 -1.2 62
2019-04-12 12:00:00 10.3 3 Sudoeste 11 Sudoeste 0 1003.1 -0.7 81
2019-04-12 11:00:00 6.8 4 Sur 6 Sur 0 1003.4 -0.2 92
2019-04-12 10:00:00 5 3 Sur 9 Sudeste 0 1003.7 0.4 96
2019-04-12 09:00:00 4.4 5 Sudeste 8 Sudeste 0 1003.8 0.7 96
2019-04-12 08:00:00 3.3 2 Oeste 4 Sudeste 0 1003.6 0.5 94
2019-04-12 07:00:00 2.8 3 Oeste 4 Oeste 0 1003.3 0 91
2019-04-12 06:00:00 3.3 3 Oeste 5 Sudeste 0 1003.1 -0.3 91
2019-04-12 05:00:00 4 0 Calma 4 Sudeste 0 1003.1 -0.4 90
2019-04-12 04:00:00 4.7 3 Oeste 4 Oeste 0 1003.3 0 88
2019-04-12 03:00:00 5.5 2 Sur 3 Sur 0 1003.4 0.3 87
2019-04-12 02:00:00 6.3 0 Calma 7 Oeste 0 1003.5 0.6 85
2019-04-12 01:00:00 7.4 2 Noroeste 5 Oeste 0 1003.3 0.8 82
2019-04-12 00:00:00 8.6 2 Sur 6 Oeste 0 1003.1 1.2 77
2019-04-11 23:00:00 10.8 2 Sur 6 Oeste 0 1002.9 1.2 69
2019-04-11 22:00:00 14.1 3 Noroeste 14 Este 0 1002.5 0.8 53
2019-04-11 21:00:00 15.8 6 Nordeste 15 Nordeste 0 1001.9 0.1 44
2019-04-11 20:00:00 17.6 4 Nordeste 15 Norte 0 1001.7 -0.2 39
2019-04-11 19:00:00 18.9 5 Norte 20 Nordeste 0 1001.7 -0.7 31
2019-04-11 18:00:00 18.4 4 Norte 15 Nordeste 0 1001.8 -1.3 36
2019-04-11 17:00:00 18.9 5 Nordeste 21 Este 0 1001.9 -2 29
2019-04-11 16:00:00 18.1 6 Norte 15 Este 0 1002.4 -2.5 38
2019-04-11 15:00:00 16.8 4 Nordeste 15 Nordeste 0 1003.1 -2.1 45
2019-04-11 14:00:00 14.6 5 Oeste 12 Oeste 0 1003.9 -1.2 60
2019-04-11 13:00:00 12.2 6 Sudoeste 14 Sur 0 1004.9 -0.1 67
2019-04-11 12:00:00 9.3 4 Sudoeste 8 Sur 0 1005.2 0.6 80
2019-04-11 11:00:00 7.5 4 Sudoeste 6 Oeste 0 1005.1 0.8 92
2019-04-11 10:00:00 6.3 2 Sudoeste 6 Sudoeste 0 1005 1.1 97
2019-04-11 09:00:00 5.7 2 Sudoeste 4 Sudeste 0 1004.6 0.6 97
2019-04-11 08:00:00 5.3 3 Sudeste 5 Sudeste 0 1004.3 0.4 96
2019-04-11 07:00:00 5.1 4 Sur 7 Sur 0 1003.9 0.2 96
2019-04-11 06:00:00 5.2 3 Oeste 4 Oeste 0 1004 0.2 94
2019-04-11 05:00:00 4.9 0 Calma 4 Oeste 0 1003.9 0.3 94
2019-04-11 04:00:00 5.2 2 Oeste 5 Oeste 0 1003.7 0.2 92
2019-04-11 03:00:00 6 0 Calma 6 Oeste 0 1003.8 0.5 91
2019-04-11 02:00:00 7.3 0 Calma 5 Oeste 0 1003.6 0.6 89
2019-04-11 01:00:00 8.7 2 Sudeste 6 Sudeste 0 1003.5 1.1 86
2019-04-11 00:00:00 10.3 2 Nordeste 8 Este 0 1003.3 1.9 80
2019-04-10 23:00:00 11.9 3 Oeste 9 Noroeste 0 1003 2.1 73
2019-04-10 22:00:00 12.8 3 Norte 10 Este 0 1002.4 2.1 69
2019-04-10 21:00:00 13.5 4 Nordeste 10 Noroeste 0 1001.4 1.4 65
2019-04-10 20:00:00 14.2 5 Nordeste 14 Nordeste 0 1000.9 1.5 63
2019-04-10 19:00:00 15.7 4 Sudoeste 13 Oeste 0 1000.3 0.7 64
2019-04-10 18:00:00 14.3 3 Sudoeste 26 Norte 0.6 1000 0.4 72
2019-04-10 17:00:00 15.9 7 Nordeste 23 Nordeste 0 999.4 -0.5 58
2019-04-10 16:00:00 16.3 5 Oeste 25 Oeste 0 999.6 -0.6 55
2019-04-10 15:00:00 16.1 6 Noroeste 21 Noroeste 0 999.6 -0.8 57
2019-04-10 14:00:00 14.3 8 Oeste 20 Oeste 0 999.9 -0.2 71
2019-04-10 13:00:00 12.8 6 Sudoeste 17 Oeste 0 1000.2 0.5 79
2019-04-10 12:00:00 10.8 6 Oeste 9 Oeste 0 1000.4 1.1 88
2019-04-10 11:00:00 8.4 2 Sudeste 7 Oeste 0 1000.1 1.3 96
2019-04-10 10:00:00 7.6 3 Oeste 5 Oeste 0 999.7 1.4 98
2019-04-10 09:00:00 6.4 0 Calma 5 Oeste 0 999.3 1.2 97
2019-04-10 08:00:00 6.4 0 Calma 5 Este 0 998.8 0.7 95
2019-04-10 07:00:00 6.9 2 Sur 4 Sudoeste 0 998.3 0.5 94
2019-04-10 06:00:00 7.7 0 Calma 4 Sudeste 0 998.1 0.1 95
2019-04-10 05:00:00 8.3 3 Sudeste 5 Sudeste 0.4 998.1 0.2 93
2019-04-10 04:00:00 8.6 3 Este 7 Este 0.2 997.8 0.2 92
2019-04-10 03:00:00 8.7 3 Sudeste 8 Sudeste 0 998 0.7 92
2019-04-10 02:00:00 9.2 3 Este 9 Sudeste 0 997.9 0.8 91
2019-04-10 01:00:00 9.1 4 Sudeste 9 Sudeste 0.6 997.6 1 94
2019-04-10 00:00:00 9.2 5 Sudeste 14 Este 5.2 997.3 1.1 93
2019-04-09 23:00:00 9.2 6 Sudeste 16 Este 2.4 997.1 1.6 90
2019-04-09 22:00:00 9.6 3 Oeste 16 Noroeste 0.6 996.6 1.5 85
2019-04-09 21:00:00 9.9 4 Sudoeste 17 Sudoeste 0.2 996.2 1.6 85
2019-04-09 20:00:00 10.2 4 Sudoeste 20 Oeste 1.4 995.5 0.7 88
2019-04-09 19:00:00 10.9 7 Sudoeste 23 Oeste 2.4 995.1 0.8 86
2019-04-09 18:00:00 12.7 8 Sur 26 Sudoeste 0.4 994.6 0 80
2019-04-09 17:00:00 12.8 13 Sudoeste 39 Sudoeste 0.2 994.8 -0.3 72
2019-04-09 16:00:00 14.2 13 Sudoeste 36 Sudoeste 0 994.3 -1.1 64
2019-04-09 15:00:00 14.2 11 Sudoeste 26 Sudoeste 0 994.6 -0.3 65
2019-04-09 14:00:00 12.2 12 Sudoeste 27 Sudoeste 0 995.1 0.3 71
2019-04-09 13:00:00 10.1 6 Sudeste 17 Oeste 1.6 995.4 1.1 85
2019-04-09 12:00:00 10.8 6 Sur 13 Sur 0 994.9 0.8 80
2019-04-09 11:00:00 9.5 5 Sudoeste 14 Sudoeste 1 994.8 1.9 86
2019-04-09 10:00:00 8.7 3 Este 7 Sudeste 0 994.3 2.3 94
2019-04-09 09:00:00 7.9 0 Calma 6 Sudeste 0 994.1 2.3 94
2019-04-09 08:00:00 7.9 0 Calma 6 Sudeste 1 992.9 0.6 95
2019-04-09 07:00:00 7.7 3 Sudoeste 10 Sudeste 3.2 992 -0.5 94
2019-04-09 06:00:00 7.6 5 Sur 15 Sudeste 2.6 991.8 -1.3 92
2019-04-09 05:00:00 7.5 7 Sur 21 Sudeste 3 992.3 -1 92
2019-04-09 04:00:00 7.9 10 Sudeste 19 Sudeste 2.6 992.5 -0.6 89
2019-04-09 03:00:00 8.2 6 Sur 12 Sudeste 4.6 993.1 -0.4 90
2019-04-09 02:00:00 8.5 5 Sudoeste 14 Sudeste 0 993.3 -0.4 87
2019-04-09 01:00:00 8.7 4 Sudeste 13 Sudeste 0 993.1 -0.2 91
2019-04-09 00:00:00 9.1 8 Sudeste 20 Sudeste 4.6 993.5 0.5 88
2019-04-08 23:00:00 9.6 3 Sur 15 Sudeste 1 993.7 0.2 85
2019-04-08 22:00:00 10.8 8 Sudeste 25 Sur 0 993.3 -0.3 69
2019-04-08 21:00:00 11 4 Sudeste 8 Sur 0 993 0.2 78
2019-04-08 20:00:00 11.9 7 Sur 30 Oeste 0.6 993.5 0.4 72
2019-04-08 19:00:00 13.4 8 Sudoeste 32 Oeste 0 993.6 0 61
2019-04-08 18:00:00 16 14 Sudoeste 36 Sur 0 992.8 -1.7 42
2019-04-08 17:00:00 16.8 17 Sudoeste 39 Sudoeste 0 993.1 -1.1 44
2019-04-08 16:00:00 16.7 13 Sudoeste 31 Sudoeste 0 993.6 -0.9 48
2019-04-08 15:00:00 14.2 21 Sudoeste 42 Oeste 0 994.5 -0.3 58
2019-04-08 14:00:00 16.3 14 Sudoeste 30 Sur 0 994.2 -0.5 49
2019-04-08 13:00:00 14.7 12 Sudoeste 36 Oeste 0 994.5 -0.1 55
2019-04-08 12:00:00 13.9 16 Sur 30 Sur 0.2 994.8 0.2 59
2019-04-08 11:00:00 11.6 7 Sur 13 Sudoeste 0 994.7 0.8 82
2019-04-08 10:00:00 8.9 3 Sudeste 8 Sudeste 0 994.6 1.2 91
2019-04-08 09:00:00 8.1 3 Sudeste 12 Sur 1.8 994.6 1.4 94
2019-04-08 08:00:00 7.4 0 Calma 4 Sudeste 0 993.9 1.1 94
2019-04-08 07:00:00 8.1 3 Nordeste 5 Nordeste 0 993.4 1.1 91
2019-04-08 06:00:00 9.2 3 Este 9 Sudoeste 0.2 993.2 1.5 91
2019-04-08 05:00:00 9.9 5 Sudoeste 12 Sudoeste 0 992.8 1.5 91
2019-04-08 04:00:00 10.5 4 Oeste 10 Sudeste 0.4 992.3 1.7 92
2019-04-08 03:00:00 10.7 5 Sudeste 14 Sur 1 991.7 1.5 92
2019-04-08 02:00:00 10.9 6 Sudeste 10 Sudeste 0 991.3 1.5 93
2019-04-08 01:00:00 10.2 0 Calma 6 Oeste 0 990.6 0.7 96
2019-04-08 00:00:00 10.2 4 Sudeste 10 Sudeste 3 990.2 0.3 96
2019-04-07 23:00:00 10.3 2 Sudoeste 9 Noroeste 0.8 989.8 -0.1 94
2019-04-07 22:00:00 10.3 0 Calma 5 Sur 1.8 989.9 0.3 93
2019-04-07 21:00:00 10.5 2 Sudoeste 11 Oeste 2 989.9 -0.5 88
2019-04-07 20:00:00 11.2 5 Sudeste 21 Sudeste 0.6 989.9 -0.9 84
2019-04-07 19:00:00 10.7 8 Sudeste 22 Sudeste 0.2 989.6 -2 83
2019-04-07 18:00:00 10.3 8 Sudeste 19 Sudeste 0.6 990.4 -1.9 85
2019-04-07 17:00:00 10.4 5 Sudeste 16 Sudeste 0.6 990.8 -1 84
2019-04-07 16:00:00 10.2 4 Sudeste 15 Sur 1 991.6 -0.6 82
2019-04-07 15:00:00 10.7 5 Sur 15 Sudeste 1.2 992.3 -0.2 80
2019-04-07 14:00:00 11.3 3 Oeste 9 Oeste 0 991.8 -0.8 84
2019-04-07 13:00:00 9.6 3 Oeste 9 Oeste 0 992.2 -0.5 85
2019-04-07 12:00:00 7.7 2 Noroeste 7 Sur 0 992.5 0 92
2019-04-07 11:00:00 6 2 Sudoeste 5 Sur 0 992.6 0.6 97
2019-04-07 10:00:00 5 2 Sudeste 9 Sudeste 0 992.7 1.1 97
2019-04-07 09:00:00 4.9 5 Sur 7 Sur 0 992.5 1.3 97
2019-04-07 08:00:00 4.9 4 Sur 6 Sur 0 992 1.3 97
2019-04-07 07:00:00 5 3 Sudoeste 4 Oeste 0 991.6 1.2 96
2019-04-07 06:00:00 4.9 2 Sudoeste 6 Oeste 0 991.2 1 95
2019-04-07 05:00:00 5 0 Calma 4 Sudoeste 0 990.7 0.8 94
2019-04-07 04:00:00 5.8 3 Oeste 4 Oeste 0 990.4 1.1 94
2019-04-07 03:00:00 5.8 0 Calma 6 Sur 0.2 990.2 1 94
2019-04-07 02:00:00 5.9 2 Sur 9 Noroeste 0 989.9 1 93
2019-04-07 01:00:00 6 4 Oeste 8 Oeste 0 989.3 1 92
2019-04-07 00:00:00 6.4 3 Sudeste 8 Sur 0.2 989.2 1.8 90
2019-04-06 23:00:00 6.6 3 Nordeste 7 Sudeste 0 988.9 2.1 88
2019-04-06 22:00:00 7.2 3 Sur 19 Sudoeste 1 988.3 1.9 86
2019-04-06 21:00:00 8.3 6 Sudeste 13 Sudeste 0 987.4 1.4 82
2019-04-06 20:00:00 9.1 5 Sudeste 19 Sudeste 0 986.8 2 81
2019-04-06 19:00:00 9.4 4 Este 21 Oeste 1.6 986.4 1.8 79
2019-04-06 18:00:00 10.6 15 Oeste 30 Sudoeste 1.4 986 1.4 74
2019-04-06 17:00:00 10.9 4 Este 27 Oeste 1 984.8 0.9 77
2019-04-06 16:00:00 11.1 5 Noroeste 26 Oeste 0.2 984.6 1.6 73
2019-04-06 15:00:00 8.8 9 Oeste 19 Oeste 1.4 984.6 2.3 84
2019-04-06 14:00:00 8.7 10 Sudoeste 23 Sudoeste 0.8 983.9 2.3 85
2019-04-06 13:00:00 9 6 Sudoeste 19 Sudoeste 1 983 2.4 87
2019-04-06 12:00:00 8.7 5 Sudoeste 20 Sudoeste 0 982.3 2.1 86
2019-04-06 11:00:00 7.5 3 Sudoeste 10 Sur 1.2 981.6 2 91
2019-04-06 10:00:00 6.2 4 Sudeste 18 Sur 1.8 980.6 0.7 91
2019-04-06 09:00:00 5.6 7 Sudeste 22 Este 1.2 980.2 -0.6 91
2019-04-06 08:00:00 5.3 9 Sudeste 22 Este 0.8 979.6 -1.8 88
2019-04-06 07:00:00 5.6 8 Sudeste 21 Este 1.2 979.9 -2.1 88
2019-04-06 06:00:00 5.5 8 Sudeste 21 Sudeste 1.4 980.8 -2.2 88
2019-04-06 05:00:00 4.9 8 Sudeste 17 Sudeste 0.8 981.4 -1.5 89
2019-04-06 04:00:00 5.4 10 Sudeste 24 Sudeste 1.4 982 -1.9 86
2019-04-06 03:00:00 6.1 11 Sudoeste 27 Sudoeste 4.4 983 -0.6 88
2019-04-06 02:00:00 6 4 Sur 12 Sudeste 0 982.9 -0.6 90
2019-04-06 01:00:00 6.6 7 Oeste 26 Oeste 4.8 983.9 0.6 85
2019-04-06 00:00:00 7.3 4 Sur 10 Sudeste 0 983.6 0.9 83
2019-04-05 23:00:00 7 5 Sudeste 12 Sudeste 0 983.5 1.3 84
2019-04-05 22:00:00 7.2 6 Sudeste 14 Sudeste 0 983.3 1.9 84
2019-04-05 21:00:00 7.9 4 Sudeste 13 Oeste 0.4 982.7 1.8 85
2019-04-05 20:00:00 9 7 Oeste 27 Noroeste 0.4 982.2 1.4 77
2019-04-05 19:00:00 11 7 Sudoeste 19 Sudoeste 0 981.4 0.1 64
2019-04-05 18:00:00 12 9 Sur 20 Sur 0 980.9 0 62
2019-04-05 17:00:00 10.8 10 Sur 20 Sudeste 0 980.8 -0.1 70
2019-04-05 16:00:00 7.7 6 Sudoeste 25 Oeste 1 981.3 1.2 84
2019-04-05 15:00:00 10 8 Oeste 28 Oeste 0 980.9 0.8 65
2019-04-05 14:00:00 9.3 12 Sudoeste 41 Sudoeste 0 980.9 0.7 71
2019-04-05 13:00:00 11.5 8 Sudoeste 30 Oeste 0 980.1 -0.3 58
2019-04-05 12:00:00 10.6 13 Sudoeste 25 Sudoeste 0 980.1 0 55
2019-04-05 11:00:00 8 3 Sudoeste 7 Oeste 0 980.2 0.6 79
2019-04-05 10:00:00 4.7 4 Sudeste 9 Oeste 0 980.4 0.8 91
2019-04-05 09:00:00 3.8 4 Sur 9 Sur 0 980.1 0.7 94
2019-04-05 08:00:00 4.5 2 Oeste 9 Oeste 0 979.6 0 93
2019-04-05 07:00:00 5.1 3 Sudoeste 8 Noroeste 0.2 979.6 0.1 94
2019-04-05 06:00:00 5.6 4 Sudeste 8 Oeste 0 979.4 -0.5 91
2019-04-05 05:00:00 6 6 Sudeste 15 Sur 0 979.6 0 89
2019-04-05 04:00:00 6.3 4 Sudeste 10 Sudeste 0.8 979.5 -0.5 91
2019-04-05 03:00:00 6.5 4 Sudeste 8 Sudeste 0.6 979.9 -0.1 93
2019-04-05 02:00:00 6.5 3 Sur 10 Sudeste 0.4 979.6 -0.4 92
2019-04-05 01:00:00 6.7 2 Sudeste 5 Sudeste 1 980 -0.1 92
2019-04-05 00:00:00 7 2 Nordeste 9 Noroeste 1.4 980 -0.3 90
2019-04-04 23:00:00 7.3 2 Sudoeste 5 Oeste 2.4 980 -0.5 91
2019-04-04 22:00:00 7.7 3 Sudeste 8 Sudeste 4.2 980.1 -1.2 87
2019-04-04 21:00:00 8.8 4 Sudeste 22 Sudeste 1.4 980.3 -2.2 80
2019-04-04 20:00:00 9.9 12 Sur 28 Sur 0 980.5 -2.8 67
2019-04-04 19:00:00 9.8 7 Sudeste 21 Sur 0 981.3 -2.8 70
2019-04-04 18:00:00 9.6 5 Sudeste 12 Sudoeste 0.2 982.5 -2.3 78
2019-04-04 17:00:00 9.9 5 Sudeste 11 Sur 0.2 983.3 -2.5 77
2019-04-04 16:00:00 10.3 4 Sudoeste 14 Sudoeste 0.8 984.1 -2.7 74
2019-04-04 15:00:00 11.2 9 Oeste 22 Oeste 0 984.8 -3.1 65
2019-04-04 14:00:00 12.4 13 Sur 26 Sudoeste 0 985.8 -2.8 50
2019-04-04 13:00:00 11.4 9 Sudoeste 23 Oeste 0 986.8 -2.7 56
2019-04-04 12:00:00 7.5 3 Oeste 9 Oeste 0 987.9 -2 68
2019-04-04 11:00:00 4.9 3 Sur 6 Sur 0 988.6 -1.1 79
2019-04-04 10:00:00 2.2 2 Sur 5 Sudoeste 0 989.5 -0.5 87
2019-04-04 09:00:00 0.3 2 Sur 6 Oeste 0 989.9 -0.5 89
2019-04-04 08:00:00 0.2 2 Sudeste 6 Sudeste 0 989.7 -1.2 89
2019-04-04 07:00:00 0.3 2 Sudoeste 5 Sur 0 990 -1.4 89
2019-04-04 06:00:00 0.7 2 Sudeste 5 Oeste 0 990.4 -1.7 87
2019-04-04 05:00:00 1.5 2 Sur 6 Sudeste 0 990.9 -1.9 85
2019-04-04 04:00:00 2.2 2 Sudoeste 5 Sur 0 991.4 -1.9 84
2019-04-04 03:00:00 2.8 3 Oeste 7 Oeste 0 992.1 -1.4 83
2019-04-04 02:00:00 3.7 0 Calma 5 Este 0 992.8 -1 80
2019-04-04 01:00:00 4.9 0 Calma 9 Este 0 993.3 -0.2 75
2019-04-04 00:00:00 6.4 3 Oeste 14 Oeste 0 993.5 0.5 69
2019-04-03 23:00:00 7.8 5 Oeste 15 Oeste 0 993.8 1.3 63
2019-04-03 22:00:00 8.5 3 Nordeste 13 Nordeste 0 993.5 1.1 58
2019-04-03 21:00:00 9.7 5 Nordeste 17 Norte 0 993 0.5 53
2019-04-03 20:00:00 11.9 4 Norte 23 Sudoeste 0 992.5 -0.5 45
2019-04-03 19:00:00 13.2 6 Noroeste 28 Noroeste 0 992.4 -0.7 36
2019-04-03 18:00:00 11.9 7 Oeste 25 Oeste 0 992.5 -1.6 47
2019-04-03 17:00:00 12.4 9 Oeste 29 Norte 0 993 -2 43
2019-04-03 16:00:00 13.2 12 Oeste 31 Oeste 0 993.1 -1.8 43
2019-04-03 15:00:00 12.6 9 Oeste 25 Oeste 0 994.1 -1.5 50
2019-04-03 14:00:00 10.2 6 Nordeste 31 Noroeste 0 995 -1 63
2019-04-03 13:00:00 12.3 7 Oeste 26 Noroeste 0 994.9 -1.5 49
2019-04-03 12:00:00 11.6 6 Oeste 20 Noroeste 0 995.6 -0.9 51
2019-04-03 11:00:00 9.1 4 Este 9 Sudoeste 0 996 -0.5 71
2019-04-03 10:00:00 6.8 2 Sur 4 Noroeste 0 996.4 -0.2 87
2019-04-03 09:00:00 5.6 0 Calma 5 Sur 0 996.5 -0.4 88
2019-04-03 08:00:00 6 3 Sudoeste 6 Este 0 996.5 -0.9 87
2019-04-03 07:00:00 6.9 2 Sudoeste 5 Sudoeste 0 996.6 -1.3 84
2019-04-03 06:00:00 6.9 2 Este 6 Oeste 0 996.9 -1.3 83
2019-04-03 05:00:00 7.1 3 Oeste 6 Oeste 0 997.4 -1.3 79
2019-04-03 04:00:00 7.6 2 Sur 8 Oeste 0 997.9 -1.2 75
2019-04-03 03:00:00 9.2 3 Noroeste 9 Nordeste 0 998.2 -1 68
2019-04-03 02:00:00 9.8 6 Nordeste 16 Nordeste 0 998.7 -0.3 64
2019-04-03 01:00:00 10.3 4 Nordeste 10 Nordeste 0 999.1 0.7 63
2019-04-03 00:00:00 11 3 Norte 12 Norte 0 999.2 1.3 58
2019-04-02 23:00:00 11.8 3 Sudeste 11 Oeste 0 999 2 55
2019-04-02 22:00:00 12.8 3 Oeste 19 Noroeste 0 998.4 1.9 51
2019-04-02 21:00:00 14 5 Nordeste 19 Noroeste 0 997.9 1.1 51
2019-04-02 20:00:00 16.4 4 Sur 17 Norte 0 997 -0.2 47
2019-04-02 19:00:00 17.5 6 Noroeste 19 Oeste 0 996.5 -1.7 44
2019-04-02 18:00:00 19.8 8 Oeste 21 Oeste 0 996.8 -2.7 37
2019-04-02 17:00:00 19.3 5 Este 12 Sudeste 0 997.2 -3 42
2019-04-02 16:00:00 18.1 4 Noroeste 16 Sudoeste 0 998.2 -2.8 46
2019-04-02 15:00:00 17.1 5 Sur 14 Noroeste 0 999.5 -2.1 51
2019-04-02 14:00:00 15 4 Oeste 11 Noroeste 0 1000.2 -1.3 58
2019-04-02 13:00:00 12 3 Oeste 6 Sudeste 0 1001 -0.3 68
2019-04-02 12:00:00 9 3 Sur 6 Sudoeste 0 1001.6 0.5 80
2019-04-02 11:00:00 7 3 Oeste 5 Sur 0 1001.5 1.2 86
2019-04-02 10:00:00 4.7 3 Sur 5 Sudeste 0 1001.3 1.5 93
2019-04-02 09:00:00 3 2 Sudeste 5 Oeste 0 1001.1 1.8 92
2019-04-02 08:00:00 3.3 2 Oeste 4 Sur 0 1000.3 0.9 89
2019-04-02 07:00:00 3.8 3 Sudeste 5 Oeste 0 999.8 0.4 91
2019-04-02 06:00:00 4.3 3 Sudoeste 4 Sudoeste 0 999.3 0.4 89
2019-04-02 05:00:00 5.2 2 Sur 5 Sur 0 999.4 0.3 87
2019-04-02 04:00:00 6.1 3 Sudoeste 4 Sur 0 999.4 0.6 85
2019-04-02 03:00:00 7.2 0 Calma 5 Sur 0 998.9 0.4 83
2019-04-02 02:00:00 8.4 0 Calma 6 Sur 0 999.1 1.3 80
2019-04-02 01:00:00 9.6 0 Calma 6 Oeste 0 998.8 1.7 78
2019-04-02 00:00:00 11.2 0 Calma 6 Oeste 0 998.5 2.6 72
2019-04-01 23:00:00 13.1 2 Sudoeste 6 Este 0 997.8 2.7 63
2019-04-01 22:00:00 15.1 2 Sudeste 8 Sudeste 0 997.1 2.5 54
2019-04-01 21:00:00 17.5 3 Sur 10 Oeste 0 995.9 1.6 45
2019-04-01 20:00:00 18.9 4 Oeste 13 Sudoeste 0 995.1 1.1 41
2019-04-01 19:00:00 19.3 5 Oeste 17 Oeste 0 994.6 1 40
2019-04-01 18:00:00 19.7 5 Oeste 16 Oeste 0 994.3 0.1 38
2019-04-01 17:00:00 19.6 5 Norte 28 Oeste 0 994 -0.8 43
2019-04-01 16:00:00 24.2 6 Oeste 12 Noroeste 0 993.6 -2 26
2019-04-01 15:00:00 22.7 5 Noroeste 13 Noroeste 0 994.2 -2 32
2019-04-01 14:00:00 21.2 4 Norte 12 Norte 0 994.8 -1.6 37
2019-04-01 13:00:00 18.5 3 Noroeste 15 Oeste 0 995.6 -0.7 45
2019-04-01 12:00:00 13.9 4 Sudeste 8 Sur 0 996.2 0.3 62
2019-04-01 11:00:00 9.8 3 Sur 5 Sur 0 996.4 1.2 76
2019-04-01 10:00:00 5.6 2 Sudoeste 3 Sudoeste 0 996.3 1.4 89
2019-04-01 09:00:00 3.9 2 Oeste 4 Sudoeste 0 995.9 1.1 89
2019-04-01 08:00:00 4.1 0 Calma 3 Sudeste 0 995.2 0.7 89
2019-04-01 07:00:00 4.6 0 Calma 5 Oeste 0 994.9 0.5 86
2019-04-01 06:00:00 5.2 3 Oeste 4 Oeste 0 994.8 0.4 84
2019-04-01 05:00:00 6 0 Calma 4 Sudoeste 0 994.5 0.2 82
2019-04-01 04:00:00 6.9 0 Calma 4 Sudoeste 0 994.4 0.1 79
2019-04-01 03:00:00 7.8 0 Calma 5 Sudeste 0 994.4 0.2 76
2019-04-01 02:00:00 9 5 Oeste 8 Oeste 0 994.3 0.3 71
2019-04-01 01:00:00 10.2 2 Sudeste 6 Oeste 0 994.3 0.6 69
2019-04-01 00:00:00 12.1 0 Calma 8 Oeste 0 994.2 1.5 60
2019-03-31 23:00:00 14 4 Sudoeste 9 Oeste 0 994 2.1 54
2019-03-31 22:00:00 16.6 3 Nordeste 8 Nordeste 0 993.7 1.8 43
2019-03-31 21:00:00 18.3 4 Nordeste 21 Noroeste 0 992.7 1 37
2019-03-31 20:00:00 20.3 4 Oeste 14 Sudoeste 0 991.9 -0.2 32
2019-03-31 19:00:00 22.1 9 Nordeste 17 Nordeste 0 991.9 -1.2 25
2019-03-31 18:00:00 23.2 6 Norte 15 Noroeste 0 991.7 -1.7 23
2019-03-31 17:00:00 21.8 7 Sur 17 Sur 0 992.1 -2 26
2019-03-31 16:00:00 21.2 11 Sudeste 27 Sudeste 0 993.1 -2 28
2019-03-31 15:00:00 21 8 Sudeste 15 Sudeste 0 993.4 -2.5 31
2019-03-31 14:00:00 20.4 4 Nordeste 12 Nordeste 0 994.1 -2.1 36
2019-03-31 13:00:00 17.2 4 Nordeste 8 Este 0 995.1 -1.2 41
2019-03-31 12:00:00 13.8 3 Sudeste 7 Sur 0 995.9 -0.5 53
2019-03-31 11:00:00 10 3 Sudoeste 5 Sudoeste 0 996.2 0.1 68
2019-03-31 10:00:00 6.1 2 Sudeste 5 Nordeste 0 996.3 0.2 83
2019-03-31 09:00:00 4 3 Sudoeste 4 Oeste 0 996.4 -0.1 85
2019-03-31 08:00:00 3.9 2 Sur 3 Oeste 0 996.1 -0.9 85
2019-03-31 07:00:00 4.6 0 Calma 6 Oeste 0 996.1 -1.2 82
2019-03-31 06:00:00 5.3 2 Sur 6 Sur 0 996.5 -1.2 79
2019-03-31 05:00:00 6.1 0 Calma 5 Oeste 0 997 -1 76
2019-03-31 03:00:00 8 3 Oeste 5 Oeste 0 997.7 -0.7 67
2019-03-31 01:00:00 9.5 2 Sudeste 6 Oeste 0 998 -0.3 60
2019-03-31 00:00:00 10.9 3 Oeste 4 Sudoeste 0 998.2 0.5 56
2019-03-30 23:00:00 13.2 2 Este 9 Este 0 998.4 1.5 47
2019-03-30 22:00:00 15.9 3 Sudoeste 8 Noroeste 0 998.3 1.6 39
2019-03-30 21:00:00 18.4 5 Oeste 11 Oeste 0 997.7 1.6 30
2019-03-30 20:00:00 19.8 4 Oeste 14 Oeste 0 996.9 0.6 26
2019-03-30 19:00:00 20.9 3 Sudoeste 16 Norte 0 996.7 -0.1 26
2019-03-30 18:00:00 22.9 5 Oeste 16 Oeste 0 996.1 -1.2 23
2019-03-30 17:00:00 24.4 8 Sudoeste 21 Oeste 0 996.3 -1.7 23
2019-03-30 16:00:00 22.8 7 Oeste 24 Noroeste 0 996.8 -2.1 27
2019-03-30 15:00:00 22.8 6 Noroeste 22 Oeste 0 997.3 -2.7 21
2019-03-30 14:00:00 21.7 5 Oeste 12 Noroeste 0 998 -2.9 23
2019-03-30 13:00:00 20.2 4 Noroeste 10 Oeste 0 998.9 -2.5 29
2019-03-30 12:00:00 16.6 3 Nordeste 9 Norte 0 1000 -1.8 45
2019-03-30 11:00:00 12.1 4 Sudoeste 8 Sudoeste 0 1000.9 -0.7 57
2019-03-30 10:00:00 8.3 3 Sur 5 Sudoeste 0 1001.4 0.1 73
2019-03-30 09:00:00 4 0 Calma 4 Oeste 0 1001.8 0.7 86
2019-03-30 08:00:00 2.8 2 Oeste 4 Oeste 0 1001.6 0.4 85
2019-03-30 07:00:00 3.2 2 Oeste 3 Oeste 0 1001.3 0 84
2019-03-30 06:00:00 3.8 4 Oeste 5 Oeste 0 1001.1 -0.4 82
2019-03-30 05:00:00 4.4 2 Oeste 5 Oeste 0 1001.2 -0.3 81
2019-03-30 04:00:00 5.3 0 Calma 7 Oeste 0 1001.3 -0.4 78
2019-03-30 03:00:00 6.3 0 Calma 6 Oeste 0 1001.5 -0.3 74
2019-03-30 02:00:00 7.6 0 Calma 5 Oeste 0 1001.5 -0.3 70
2019-03-30 01:00:00 8.8 0 Calma 5 Oeste 0 1001.7 0.2 65
2019-03-30 00:00:00 10.5 0 Calma 4 Sudoeste 0 1001.8 0.7 59
2019-03-29 23:00:00 12.1 2 Sudoeste 6 Oeste 0 1001.8 1.5 53
2019-03-29 22:00:00 14.4 0 Calma 7 Este 0 1001.5 1.6 44
2019-03-29 21:00:00 16.9 3 Este 10 Oeste 0 1001.1 1.8 40
2019-03-29 20:00:00 19.3 4 Sudoeste 18 Oeste 0 1000.3 1.2 32
2019-03-29 19:00:00 22 9 Oeste 24 Noroeste 0 999.9 0.2 29
2019-03-29 18:00:00 23.4 10 Oeste 27 Oeste 0 999.3 -1.2 26
2019-03-29 17:00:00 24.9 7 Sudoeste 18 Oeste 0 999.1 -2.4 23
2019-03-29 16:00:00 25 4 Oeste 21 Oeste 0 999.7 -2.7 23
2019-03-29 15:00:00 24.2 8 Oeste 19 Sudoeste 0 1000.5 -3 21
2019-03-29 14:00:00 22.6 5 Norte 12 Norte 0 1001.5 -2.9 26
2019-03-29 13:00:00 20.6 4 Sur 10 Sudoeste 0 1002.4 -2.5 35
2019-03-29 12:00:00 16.8 4 Nordeste 10 Noroeste 0 1003.5 -1.8 47
2019-03-29 11:00:00 12.4 4 Sur 9 Sur 0 1004.4 -1 64
2019-03-29 10:00:00 8.9 4 Sur 6 Sur 0 1004.9 -0.4 77
2019-03-29 09:00:00 4.4 0 Calma 3 Sudoeste 0 1005.3 0.1 91
2019-03-29 08:00:00 3.1 2 Sudeste 5 Sudeste 0 1005.4 0.2 90
2019-03-29 07:00:00 3.5 2 Sudoeste 4 Oeste 0 1005.3 -0.1 85
2019-03-29 06:00:00 4.2 0 Calma 7 Sur 0 1005.2 -0.2 86
2019-03-29 05:00:00 5 2 Sudoeste 5 Sudeste 0 1005.2 -0.4 83
2019-03-29 04:00:00 6 3 Sudoeste 4 Sudoeste 0 1005.4 -0.1 82
2019-03-29 03:00:00 7.1 3 Sudoeste 6 Sur 0 1005.4 -0.1 78
2019-03-29 02:00:00 8.2 0 Calma 3 Oeste 0 1005.6 0.4 75
2019-03-29 01:00:00 9.8 0 Calma 4 Oeste 0 1005.5 0.8 71
2019-03-29 00:00:00 11.8 2 Este 6 Sudeste 0 1005.5 1.4 66
2019-03-28 23:00:00 13.8 0 Calma 5 Sudeste 0 1005.2 2 59
2019-03-28 22:00:00 16.2 2 Sudeste 8 Norte 0 1004.7 1.9 51
2019-03-28 21:00:00 18.5 3 Este 13 Este 0 1004.1 1.5 43
2019-03-28 20:00:00 20.9 5 Norte 17 Nordeste 0 1003.2 -0.1 34
2019-03-28 19:00:00 24.9 5 Norte 17 Norte 0 1002.8 -1.3 24
2019-03-28 18:00:00 25.9 4 Sur 10 Sudoeste 0 1002.6 -2.4 21
2019-03-28 17:00:00 25.8 4 Sudoeste 12 Sudoeste 0 1003.3 -2.8 22
2019-03-28 16:00:00 25.1 7 Sudoeste 14 Sudoeste 0 1004.1 -3 19
2019-03-28 15:00:00 23.8 4 Sur 12 Sudoeste 0 1005 -3.3 22
2019-03-28 14:00:00 21.6 5 Noroeste 16 Oeste 0 1006.1 -3.2 27
2019-03-28 13:00:00 19.7 4 Nordeste 14 Norte 0 1007.1 -2.8 29
2019-03-28 12:00:00 16.6 4 Norte 9 Oeste 0 1008.3 -1.9 37
2019-03-28 11:00:00 12.4 4 Sur 7 Sur 0 1009.3 -0.7 61
2019-03-28 10:00:00 8.2 4 Sur 6 Sudeste 0 1009.9 0.4 76
2019-03-28 09:00:00 3.9 2 Sur 4 Sudeste 0 1010.2 1.2 91
2019-03-28 08:00:00 2.6 3 Sudoeste 5 Sudeste 0 1010 1.2 89
2019-03-28 07:00:00 3.1 3 Sudeste 6 Sur 0 1009.5 1 87
2019-03-28 06:00:00 3.6 2 Oeste 6 Sur 0 1009 0.5 87
2019-03-28 05:00:00 4.6 2 Sudeste 5 Sudoeste 0 1008.8 0.5 85
2019-03-28 04:00:00 5.5 3 Sur 6 Sur 0 1008.5 0.3 81
2019-03-28 03:00:00 6.7 2 Sudeste 7 Sudeste 0 1008.5 0.8 79
2019-03-28 02:00:00 8.1 3 Sudoeste 6 Sudeste 0 1008.3 1.2 73
2019-03-28 01:00:00 9.8 4 Sudeste 11 Nordeste 0 1008.2 1.9 68
2019-03-28 00:00:00 11.7 3 Sudeste 17 Noroeste 0 1007.7 2.1 61
2019-03-27 23:00:00 13.5 5 Norte 19 Norte 0 1007.1 2.4 54
2019-03-27 22:00:00 14.9 4 Norte 23 Norte 0 1006.3 2.4 51
2019-03-27 21:00:00 16.8 5 Oeste 16 Nordeste 0 1005.6 2.3 47
2019-03-27 20:00:00 19.6 7 Norte 15 Nordeste 0 1004.7 1.4 38
2019-03-27 19:00:00 22.8 6 Nordeste 25 Nordeste 0 1003.9 0.1 28
2019-03-27 18:00:00 24.7 8 Nordeste 19 Nordeste 0 1003.3 -1.2 18
2019-03-27 17:00:00 25.6 4 Norte 13 Sur 0 1003.3 -1.9 10
2019-03-27 16:00:00 24.9 6 Sur 12 Oeste 0 1003.8 -1.9 14
2019-03-27 15:00:00 23.9 4 Sur 12 Sur 0 1004.5 -1.9 12
2019-03-27 14:00:00 22.2 4 Oeste 14 Noroeste 0 1005.2 -2 13
2019-03-27 13:00:00 20.2 5 Noroeste 12 Oeste 0 1005.7 -1.7 15
2019-03-27 12:00:00 15.9 5 Sudoeste 8 Sudoeste 0 1006.4 -1 41
2019-03-27 11:00:00 11.2 4 Sur 8 Sudeste 0 1007.2 0.2 55
2019-03-27 10:00:00 6.7 3 Sur 6 Sur 0 1007.4 1.5 69
2019-03-27 09:00:00 1.8 2 Sudoeste 5 Sur 0 1007.4 2.1 83
2019-03-27 08:00:00 0.7 3 Sudoeste 6 Oeste 0 1007 2.3 83
2019-03-27 07:00:00 1.2 3 Sudoeste 6 Sudeste 0 1005.9 1.5 85
2019-03-27 06:00:00 1.7 3 Sudeste 8 Sur 0 1005.3 1.3 83
2019-03-27 05:00:00 2.7 3 Este 7 Sur 0 1004.7 1 80
2019-03-27 04:00:00 3.5 2 Sudoeste 5 Sudoeste 0 1004.4 1.1 79
2019-03-27 03:00:00 4.5 2 Oeste 6 Sudoeste 0 1004 0.9 77
2019-03-27 02:00:00 6.1 0 Calma 6 Sur 0 1003.7 1.4 73
2019-03-27 01:00:00 7.7 3 Sudeste 8 Oeste 0 1003.3 1.7 69
2019-03-27 00:00:00 10.2 3 Sudoeste 8 Nordeste 0 1003.1 2.5 62
2019-03-26 23:00:00 12.2 4 Este 12 Norte 0 1002.3 3.3 56
2019-03-26 22:00:00 14.5 3 Norte 16 Este 0 1001.6 3.6 48
2019-03-26 21:00:00 16.4 4 Norte 15 Noroeste 0 1000.6 3.4 43
2019-03-26 20:00:00 18.6 8 Norte 27 Este 0 999 1.6 39
2019-03-26 19:00:00 24.1 6 Norte 30 Nordeste 0 998 0.2 21
2019-03-26 18:00:00 26 8 Nordeste 19 Nordeste 0 997.2 -1.5 7
2019-03-26 17:00:00 26.6 6 Sudoeste 13 Sur 0 997.4 -2.5 13
2019-03-26 16:00:00 26.2 8 Sudoeste 18 Oeste 0 997.8 -3.3 17
2019-03-26 15:00:00 23.7 8 Sudoeste 17 Oeste 0 998.7 -3.7 20
2019-03-26 14:00:00 21 6 Norte 15 Norte 0 999.9 -3.2 24
2019-03-26 13:00:00 18.1 5 Oeste 12 Oeste 0 1001.1 -2.2 33
2019-03-26 12:00:00 15.1 5 Norte 17 Noroeste 0 1002.4 -1.4 42
2019-03-26 11:00:00 12.5 5 Norte 16 Norte 0 1003.1 -0.9 47
2019-03-26 10:00:00 9 3 Sudeste 5 Norte 0 1003.3 -0.3 69
2019-03-26 09:00:00 3.8 2 Sur 3 Sudeste 0 1003.8 0.6 91
2019-03-26 08:00:00 2.6 0 Calma 6 Sudeste 0 1004 0.9 89
2019-03-26 07:00:00 3.4 3 Sur 8 Sur 0 1003.6 0.3 89
2019-03-26 06:00:00 4.1 3 Sur 5 Sudeste 0 1003.2 -0.4 86
2019-03-26 05:00:00 5.5 2 Sudoeste 7 Sur 0 1003.1 -0.6 83
2019-03-26 04:00:00 6.4 3 Sudoeste 8 Sudoeste 0 1003.3 -0.6 82
2019-03-26 03:00:00 7.5 2 Sur 10 Este 0 1003.6 -0.3 80
2019-03-26 02:00:00 8.9 4 Noroeste 9 Sudeste 0 1003.7 0.5 74
2019-03-26 01:00:00 9.9 4 Sur 9 Sur 0 1003.9 1.4 71
2019-03-26 00:00:00 11.9 3 Norte 16 Nordeste 0 1003.9 2.2 63
2019-03-25 23:00:00 12.9 4 Norte 18 Nordeste 0 1003.2 1.9 60
2019-03-25 22:00:00 14 6 Norte 23 Norte 0 1002.5 1.8 59
2019-03-25 21:00:00 15.2 5 Noroeste 23 Norte 0 1001.7 1.4 58
2019-03-25 20:00:00 17 7 Norte 23 Norte 0 1001.3 0.7 53
2019-03-25 19:00:00 20.1 7 Norte 18 Norte 0 1000.7 -0.7 43
2019-03-25 18:00:00 22.6 6 Norte 21 Noroeste 0 1000.3 -2 35
2019-03-25 17:00:00 23.7 8 Noroeste 20 Noroeste 0 1000.6 -3 30
2019-03-25 16:00:00 23.1 6 Norte 22 Este 0 1001.4 -3.3 34
2019-03-25 15:00:00 22 8 Nordeste 19 Nordeste 0 1002.3 -3.3 39
2019-03-25 14:00:00 20.6 6 Norte 20 Nordeste 0 1003.6 -2.8 38
2019-03-25 13:00:00 18.8 6 Norte 16 Norte 0 1004.7 -2.1 44
2019-03-25 12:00:00 16.7 4 Norte 14 Norte 0 1005.6 -1.2 50
2019-03-25 11:00:00 13.8 7 Norte 17 Nordeste 0 1006.4 -0.1 59
2019-03-25 10:00:00 9.8 4 Sur 7 Sur 0 1006.8 0.6 79
2019-03-25 09:00:00 5.2 0 Calma 4 Oeste 0 1006.8 0.7 90
2019-03-25 08:00:00 4.3 2 Sudoeste 4 Sur 0 1006.5 0.5 91
2019-03-25 07:00:00 4.7 0 Calma 6 Sur 0 1006.2 0.1 89
2019-03-25 06:00:00 5.3 3 Sudeste 4 Sudeste 0 1006.1 0 88
2019-03-25 05:00:00 6.2 2 Sur 5 Sur 0 1006 -0.1 85
2019-03-25 04:00:00 7.1 0 Calma 5 Sur 0 1006.1 0.1 82
2019-03-25 03:00:00 8.3 3 Oeste 5 Oeste 0 1006.1 0.2 78
2019-03-25 02:00:00 9.9 2 Sudeste 10 Sudeste 0 1006.1 0.3 72
2019-03-25 01:00:00 12 2 Nordeste 11 Nordeste 0 1006 0.7 63
2019-03-25 00:00:00 13.2 4 Norte 12 Norte 0 1005.9 1.5 59
2019-03-24 23:00:00 14.2 3 Oeste 15 Noroeste 0 1005.8 2.6 58
2019-03-24 22:00:00 15.3 6 Norte 18 Norte 0 1005.3 3.1 56
2019-03-24 21:00:00 17.4 6 Norte 19 Nordeste 0 1004.4 2.6 51
2019-03-24 20:00:00 20.1 5 Oeste 19 Noroeste 0 1003.2 1.3 46
2019-03-24 19:00:00 23.1 5 Norte 22 Nordeste 0 1002.2 -0.1 32
2019-03-24 18:00:00 24.8 8 Norte 19 Norte 0 1001.8 -1.3 25
2019-03-24 17:00:00 25.5 7 Nordeste 19 Norte 0 1001.9 -2.4 24
2019-03-24 16:00:00 26 6 Norte 15 Noroeste 0 1002.3 -3 20
2019-03-24 15:00:00 25.3 5 Sudoeste 11 Sudoeste 0 1003.1 -3.4 29
2019-03-24 14:00:00 23 3 Norte 7 Nordeste 0 1004.3 -2.9 27
2019-03-24 13:00:00 19.8 4 Sur 7 Sudoeste 0 1005.3 -2.1 41
2019-03-24 12:00:00 16.3 4 Sur 7 Sur 0 1006.5 -0.8 52
2019-03-24 11:00:00 12.9 3 Sur 6 Sur 0 1007.2 0.3 63
2019-03-24 10:00:00 8.8 3 Este 6 Sudeste 0 1007.4 0.9 76
2019-03-24 09:00:00 4.5 2 Sudoeste 4 Oeste 0 1007.3 1 87
2019-03-24 08:00:00 3.8 3 Oeste 4 Oeste 0 1006.9 1.1 87
2019-03-24 07:00:00 4.2 0 Calma 4 Oeste 0 1006.5 0.8 86
2019-03-24 06:00:00 5.1 0 Calma 5 Sur 0 1006.3 0.8 82
2019-03-24 05:00:00 5.9 3 Sudeste 8 Este 0 1005.8 0.4 82
2019-03-24 04:00:00 6.5 2 Oeste 5 Oeste 0 1005.7 0.3 79
2019-03-24 03:00:00 7.4 2 Este 5 Este 0 1005.5 0.1 77
2019-03-24 02:00:00 8 0 Calma 6 Oeste 0 1005.4 0.2 75
2019-03-24 01:00:00 9.1 0 Calma 4 Oeste 0 1005.4 0.6 71
2019-03-24 00:00:00 10.5 0 Calma 7 Oeste 0 1005.4 1.4 66
2019-03-23 23:00:00 12.3 0 Calma 4 Oeste 0 1005.2 2 60
2019-03-23 22:00:00 14.4 3 Este 9 Este 0 1004.8 1.9 53
2019-03-23 21:00:00 16.3 4 Sudeste 9 Oeste 0 1004 1.5 47
2019-03-23 20:00:00 21.1 0 Calma 7 Oeste 0 1003.2 0.6 34
2019-03-23 19:00:00 24.5 5 Oeste 12 Oeste 0 1002.9 -0.2 23
2019-03-23 18:00:00 24.9 5 Sur 19 Sur 0 1002.5 -1.1 24
2019-03-23 17:00:00 25.1 10 Sudoeste 21 Sur 0 1002.6 -2.1 24
2019-03-23 16:00:00 25.1 11 Sur 24 Sur 0 1003.1 -2.9 22
2019-03-23 15:00:00 24.6 6 Sudoeste 13 Sudoeste 0 1003.6 -3.5 24
2019-03-23 14:00:00 21.9 5 Oeste 12 Oeste 0 1004.7 -3.4 34
2019-03-23 13:00:00 18.6 4 Oeste 12 Oeste 0 1006 -2.8 43
2019-03-23 12:00:00 14.5 3 Sudoeste 7 Sudoeste 0 1007.1 -1.9 55
2019-03-23 11:00:00 10.9 3 Sur 6 Sudoeste 0 1008.1 -0.7 65
2019-03-23 10:00:00 7 0 Calma 4 Sur 0 1008.8 0.2 78
2019-03-23 09:00:00 3 0 Calma 4 Sudoeste 0 1009 0.7 90
2019-03-23 08:00:00 2.3 0 Calma 5 Sur 0 1008.8 0.6 88
2019-03-23 07:00:00 2.5 2 Sudoeste 5 Oeste 0 1008.6 0 88
2019-03-23 06:00:00 3.4 0 Calma 6 Sudoeste 0 1008.3 -0.6 87
2019-03-23 05:00:00 4.1 3 Sudoeste 6 Sudoeste 0 1008.2 -0.5 85
2019-03-23 04:00:00 4.9 0 Calma 4 Oeste 0 1008.6 0.1 82
2019-03-23 03:00:00 5.9 2 Sudoeste 5 Sudeste 0 1008.9 0.5 76
2019-03-23 02:00:00 6.9 4 Sudoeste 6 Sudoeste 0 1008.7 0.3 72
2019-03-23 01:00:00 8 0 Calma 4 Oeste 0 1008.5 0.8 69
2019-03-23 00:00:00 9.4 2 Oeste 5 Oeste 0 1008.4 1.6 65
2019-03-22 23:00:00 10.9 3 Sudoeste 7 Oeste 0 1008.4 2.5 60
2019-03-22 22:00:00 13.4 4 Sudeste 10 Este 0 1007.7 2.3 52
2019-03-22 21:00:00 14.8 2 Este 10 Este 0 1006.8 1.6 48
2019-03-22 20:00:00 18.8 4 Oeste 8 Oeste 0 1005.9 0.3 38
2019-03-22 19:00:00 22.5 3 Sudoeste 14 Oeste 0 1005.4 -0.7 24
2019-03-22 18:00:00 23 5 Oeste 12 Noroeste 0 1005.2 -1.5 23
2019-03-22 17:00:00 22.5 5 Norte 15 Noroeste 0 1005.6 -1.8 21
2019-03-22 16:00:00 22.6 5 Sudoeste 14 Oeste 0 1006.1 -2.1 23
2019-03-22 15:00:00 21.8 7 Oeste 15 Oeste 0 1006.7 -2.1 22
2019-03-22 14:00:00 20.6 4 Sur 13 Oeste 0 1007.4 -2.1 30
2019-03-22 13:00:00 18.7 4 Norte 11 Oeste 0 1008.2 -1.5 37
2019-03-22 12:00:00 14.8 6 Oeste 12 Oeste 0 1008.8 -0.8 51
2019-03-22 11:00:00 10.8 3 Nordeste 9 Este 0 1009.5 0.3 65
2019-03-22 10:00:00 6.7 3 Sur 5 Sur 0 1009.7 1.1 80
2019-03-22 09:00:00 2.5 2 Sudoeste 4 Oeste 0 1009.6 1.4 91
2019-03-22 08:00:00 1.7 2 Oeste 4 Oeste 0 1009.2 1.2 90
2019-03-22 07:00:00 2.2 0 Calma 4 Oeste 0 1008.6 0.5 87
2019-03-22 06:00:00 2.7 0 Calma 5 Oeste 0 1008.2 0 87
2019-03-22 05:00:00 3.7 2 Sudoeste 5 Oeste 0 1008 0 84
2019-03-22 04:00:00 4.4 0 Calma 3 Oeste 0 1008.1 0.2 82
2019-03-22 03:00:00 5.5 2 Este 4 Oeste 0 1008.2 0.6 79
2019-03-22 02:00:00 6.9 3 Oeste 6 Sur 0 1008 0.9 73
2019-03-22 01:00:00 7.8 2 Oeste 4 Oeste 0 1007.9 1.3 72
2019-03-22 00:00:00 9.2 2 Oeste 5 Oeste 0 1007.6 1.9 67
2019-03-21 23:00:00 11.3 3 Sudoeste 7 Este 0 1007.1 2.3 59
2019-03-21 22:00:00 13.5 4 Este 10 Nordeste 0 1006.6 2.1 52
2019-03-21 21:00:00 15.1 4 Nordeste 15 Sur 0 1005.7 1.1 46
2019-03-21 20:00:00 17.9 0 Calma 7 Sur 0 1004.8 -0.3 36
2019-03-21 19:00:00 21.6 4 Sudoeste 8 Sudeste 0 1004.5 -1.3 24
2019-03-21 18:00:00 21.8 5 Sur 12 Sur 0 1004.6 -2.2 19
2019-03-21 17:00:00 21.9 7 Sur 14 Oeste 0 1005.1 -2.8 24
2019-03-21 16:00:00 20.9 5 Sur 12 Noroeste 0 1005.8 -3.1 24
2019-03-21 15:00:00 20.5 2 Noroeste 13 Oeste 0 1006.8 -2.7 25
2019-03-21 14:00:00 19.1 6 Sudoeste 14 Noroeste 0 1007.9 -2.2 28
2019-03-21 13:00:00 17.2 4 Norte 13 Este 0 1008.9 -1.4 32
2019-03-21 12:00:00 15.5 5 Oeste 12 Oeste 0 1009.5 -0.9 34
2019-03-21 11:00:00 13.2 4 Oeste 12 Oeste 0 1010.1 -0.1 48
2019-03-21 10:00:00 9.2 3 Sudoeste 5 Sudoeste 0 1010.3 0.1 79
2019-03-21 09:00:00 6.2 0 Calma 5 Sudeste 0 1010.4 0.7 89
2019-03-21 08:00:00 5.5 2 Sudeste 4 Sudeste 0 1010.2 0.5 90
2019-03-21 07:00:00 5.8 2 Sudoeste 3 Oeste 0 1010.2 0.6 89
2019-03-21 06:00:00 5.6 2 Sudeste 5 Sur 0 1009.7 -0.1 90
2019-03-21 05:00:00 5.5 0 Calma 5 Oeste 0 1009.7 0 87
2019-03-21 04:00:00 5.6 2 Sur 5 Sur 0 1009.6 0 87
2019-03-21 03:00:00 5.9 2 Sudeste 6 Sur 0 1009.8 0.5 86
2019-03-21 02:00:00 7 0 Calma 5 Sudeste 0 1009.7 0.7 84
2019-03-21 01:00:00 8.3 2 Este 6 Este 0 1009.6 0.8 80
2019-03-21 00:00:00 9.9 3 Este 10 Norte 0 1009.3 1 75
2019-03-20 23:00:00 11.7 3 Norte 10 Norte 0 1009 1.3 68
2019-03-20 22:00:00 13.1 5 Norte 20 Noroeste 0 1008.8 1.6 62
2019-03-20 21:00:00 14.7 4 Noroeste 15 Norte 0 1008.3 1.2 58
2019-03-20 20:00:00 16.8 9 Norte 19 Nordeste 0 1007.7 0.4 51
2019-03-20 19:00:00 20.2 6 Nordeste 12 Nordeste 0 1007.2 -0.8 34
2019-03-20 18:00:00 21.1 5 Norte 15 Este 0 1007.1 -1.7 33
2019-03-20 17:00:00 20.8 5 Nordeste 14 Nordeste 0 1007.3 -2.4 33
2019-03-20 16:00:00 20.2 4 Este 13 Sudeste 0 1008 -2.6 36
2019-03-20 15:00:00 19.1 5 Norte 14 Oeste 0 1008.8 -2.8 41
2019-03-20 14:00:00 17.6 6 Oeste 14 Oeste 0 1009.7 -2.4 44
2019-03-20 13:00:00 15.8 5 Oeste 14 Norte 0 1010.6 -1.9 50
2019-03-20 12:00:00 13.9 5 Norte 16 Norte 0 1011.6 -0.9 57
2019-03-20 11:00:00 11.8 5 Norte 11 Este 0 1012.1 -0.2 63
2019-03-20 10:00:00 7 3 Sur 6 Sur 0 1012.5 0.7 83
2019-03-20 09:00:00 2.7 0 Calma 4 Sudoeste 0 1012.5 1.1 93
2019-03-20 08:00:00 2.1 2 Sur 5 Sudeste 0 1012.3 1.1 93
2019-03-20 07:00:00 2.5 3 Sudeste 6 Sudeste 0 1011.8 0.6 90
2019-03-20 06:00:00 3.1 0 Calma 8 Sur 0 1011.4 -0.4 89
2019-03-20 05:00:00 4 0 Calma 5 Sudoeste 0 1011.2 -0.6 87
2019-03-20 04:00:00 4.9 0 Calma 7 Sur 0 1011.2 -0.4 87
2019-03-20 03:00:00 5.9 3 Sudeste 8 Sur 0 1011.8 0.2 83
2019-03-20 02:00:00 7.2 0 Calma 8 Nordeste 0 1011.8 0.4 79
2019-03-20 01:00:00 9.1 3 Nordeste 11 Nordeste 0 1011.6 0.7 74
2019-03-20 00:00:00 10 3 Oeste 9 Oeste 0 1011.6 1.6 70
2019-03-19 23:00:00 10.6 3 Noroeste 14 Norte 0 1011.4 1.8 67
2019-03-19 22:00:00 11.5 4 Norte 24 Noroeste 0 1010.9 2.4 63
2019-03-19 21:00:00 12.4 5 Norte 19 Noroeste 0 1010 2 61
2019-03-19 20:00:00 13.7 6 Norte 27 Norte 0 1009.6 1.8 57
2019-03-19 19:00:00 16.2 7 Norte 21 Noroeste 0 1008.5 0.3 49
2019-03-19 18:00:00 17.6 9 Norte 24 Noroeste 0 1008 -0.5 44
2019-03-19 17:00:00 18.3 8 Norte 22 Norte 0 1007.8 -1.5 41
2019-03-19 16:00:00 18.6 6 Norte 19 Norte 0 1008.2 -2.2 43
2019-03-19 15:00:00 18.1 6 Norte 21 Norte 0 1008.5 -2.6 43
2019-03-19 14:00:00 16.8 6 Norte 24 Este 0 1009.3 -2 45
2019-03-19 13:00:00 15.6 8 Norte 24 Nordeste 0 1010.4 -1.1 47
2019-03-19 12:00:00 13.5 9 Nordeste 28 Nordeste 0 1011.1 -0.3 54
2019-03-19 11:00:00 10.7 6 Este 20 Este 0 1011.3 0.4 64
2019-03-19 10:00:00 6.7 2 Sudeste 4 Sur 0 1011.5 1 78
2019-03-19 09:00:00 2.5 0 Calma 4 Sudoeste 0 1011.4 1 89
2019-03-19 08:00:00 2 3 Sudeste 5 Sudeste 0 1010.9 0.6 90
2019-03-19 07:00:00 2.5 0 Calma 5 Oeste 0 1010.5 0.2 88
2019-03-19 06:00:00 3.2 2 Sur 5 Nordeste 0 1010.4 -0.2 87
2019-03-19 05:00:00 4 2 Oeste 8 Este 0 1010.3 -0.5 84
2019-03-19 04:00:00 5.2 0 Calma 8 Este 0 1010.3 -1 80
2019-03-19 03:00:00 6.1 3 Sudeste 10 Norte 0 1010.6 -0.8 77
2019-03-19 02:00:00 7.8 2 Norte 10 Norte 0 1010.8 -0.3 70
2019-03-19 01:00:00 8.4 3 Norte 12 Norte 0 1011.3 0.5 68
2019-03-19 00:00:00 8.6 3 Noroeste 14 Noroeste 0 1011.4 1.1 67